Airfield :
LOGIN :

Register | Disclaimer

   EN    FR    IT 

 










Legend :    VFR   Marginal VFR   IFR   Intensive IFR   Very Intensive IFR
Visi :
Ceiling :
>= 8 km
>= 3000ft
5 to 8 km
1000 to 3000 ft
1500m to 5 km
500 to 1000 ft
800 to 1500m
200 to 500 ft
< 800m
< 200 ft
Symbols :   Thunderstorms  Fog  Heavy snow  Heavy precipitations  Wind > 20 kt
SIGMETs :     Misc.  Thunderstorms  Icing  Turbulence  Mountain Waves  Volcanic Ashes







- Airport Elevation : 187 ft


ETNW - Wunstorf AB

CURRENT METAR :
  • 191320Z AUTO VRB03KT 5000 // ////// 14/06 Q1025 ///

EXPIRED METARs :
  • 191241Z 07005KT 9999 FEW030 14/06 Q1025 BLU+FCST CANCEL
  • 191220Z 07005KT 9999 FEW030 14/06 Q1025 BLU+BLU+
  • 191120Z 05005KT 9999 FEW025 13/06 Q1026 BLU+BLU+

TAF TAF ETNW
Valid from the 19 at 11:00 until the 20 at 11:00 UTC


191000Z 1911/2011 06005KT 9999 NSW FEW040 SCT300
BECMG 1921/1923 VRB03KT 6000 NSW FEW300
TEMPO 2003/2008 VRB02KT 3000 MIFG SCT001
PROB30 2005/2008 VRB01KT 0500 FG VV001 BY ETGL
No reported NOTAMs for that airfield.



MET'MAP, your aeronautical weather chart ! - Copyright ORBIFLY December 2007 - Disclaimer

ORBIFLY MET'MAP TEAM :

Programming & Development : Alexandra Zaïnal
Concept & Development : Baudouin d'Aumeries
Co-Development & Prog : Marc-Olivier Méhu
Technical & hardware support : Manuel Goepfert

Contact : metmap@orbifly.com




SOURCES & CREDITS :

   NOAA